sensor_id;sensor_type;location;lat;lon;timestamp;pressure;altitude;pressure_sealevel;temperature;humidity
73692;BME280;61996;49.910;35.562;2023-12-20T00:02:59;99005.38;;;18.97;43.34
73692;BME280;61996;49.910;35.562;2023-12-20T00:06:03;99000.88;;;18.98;43.29
73692;BME280;61996;49.910;35.562;2023-12-20T00:09:06;98987.81;;;18.86;43.44
73692;BME280;61996;49.910;35.562;2023-12-20T00:12:09;98985.00;;;18.88;43.51
73692;BME280;61996;49.910;35.562;2023-12-20T00:15:13;98976.22;;;18.96;43.41
73692;BME280;61996;49.910;35.562;2023-12-20T00:18:16;98973.66;;;18.86;43.49
73692;BME280;61996;49.910;35.562;2023-12-20T00:21:20;98968.34;;;18.86;43.59
73692;BME280;61996;49.910;35.562;2023-12-20T00:24:23;98963.38;;;18.91;43.32
73692;BME280;61996;49.910;35.562;2023-12-20T00:27:26;98971.84;;;18.86;43.44
73692;BME280;61996;49.910;35.562;2023-12-20T00:30:31;98964.00;;;18.85;43.53
73692;BME280;61996;49.910;35.562;2023-12-20T00:33:34;98974.34;;;18.88;43.30
73692;BME280;61996;49.910;35.562;2023-12-20T00:36:37;98968.19;;;18.87;43.39
73692;BME280;61996;49.910;35.562;2023-12-20T00:39:40;98968.63;;;18.83;43.44
73692;BME280;61996;49.910;35.562;2023-12-20T00:42:43;98965.47;;;18.79;43.64
73692;BME280;61996;49.910;35.562;2023-12-20T00:45:50;98954.47;;;18.82;43.54
73692;BME280;61996;49.910;35.562;2023-12-20T00:48:53;98954.97;;;18.78;43.60
73692;BME280;61996;49.910;35.562;2023-12-20T00:51:56;98944.97;;;18.80;43.39
73692;BME280;61996;49.910;35.562;2023-12-20T00:54:59;98937.28;;;18.77;43.51
73692;BME280;61996;49.910;35.562;2023-12-20T00:58:02;98926.28;;;18.72;43.60
73692;BME280;61996;49.910;35.562;2023-12-20T01:01:07;98939.28;;;18.75;43.45
73692;BME280;61996;49.910;35.562;2023-12-20T01:04:10;98933.94;;;18.75;43.48
73692;BME280;61996;49.910;35.562;2023-12-20T01:07:14;98934.41;;;18.70;43.63
73692;BME280;61996;49.910;35.562;2023-12-20T01:10:17;98923.13;;;18.76;43.37
73692;BME280;61996;49.910;35.562;2023-12-20T01:13:20;98927.13;;;18.72;43.58
73692;BME280;61996;49.910;35.562;2023-12-20T01:16:24;98927.78;;;18.74;43.30
73692;BME280;61996;49.910;35.562;2023-12-20T01:19:28;98922.06;;;18.69;43.34
73692;BME280;61996;49.910;35.562;2023-12-20T01:22:31;98917.75;;;18.68;43.42
73692;BME280;61996;49.910;35.562;2023-12-20T01:25:34;98927.03;;;18.64;43.61
73692;BME280;61996;49.910;35.562;2023-12-20T01:28:37;98924.13;;;18.75;43.34
73692;BME280;61996;49.910;35.562;2023-12-20T01:31:42;98918.16;;;18.63;43.56
73692;BME280;61996;49.910;35.562;2023-12-20T01:34:45;98918.03;;;18.65;43.59
73692;BME280;61996;49.910;35.562;2023-12-20T01:37:50;98904.44;;;18.68;43.54
73692;BME280;61996;49.910;35.562;2023-12-20T01:40:53;98919.41;;;18.69;43.47
73692;BME280;61996;49.910;35.562;2023-12-20T01:43:56;98928.56;;;18.67;43.53
73692;BME280;61996;49.910;35.562;2023-12-20T01:47:01;98925.47;;;18.61;43.60
73692;BME280;61996;49.910;35.562;2023-12-20T01:50:04;98917.81;;;18.58;43.69
73692;BME280;61996;49.910;35.562;2023-12-20T01:53:10;98917.00;;;18.58;43.71
73692;BME280;61996;49.910;35.562;2023-12-20T01:56:14;98917.44;;;18.53;43.84
73692;BME280;61996;49.910;35.562;2023-12-20T01:59:18;98914.16;;;18.59;43.62
73692;BME280;61996;49.910;35.562;2023-12-20T02:02:23;98911.78;;;18.56;43.61
73692;BME280;61996;49.910;35.562;2023-12-20T02:05:26;98926.94;;;18.56;43.60
73692;BME280;61996;49.910;35.562;2023-12-20T02:08:29;98914.63;;;18.55;43.57
73692;BME280;61996;49.910;35.562;2023-12-20T02:11:32;98912.78;;;18.55;43.66
73692;BME280;61996;49.910;35.562;2023-12-20T02:14:37;98922.97;;;18.60;43.50
73692;BME280;61996;49.910;35.562;2023-12-20T02:17:41;98913.31;;;18.59;43.47
73692;BME280;61996;49.910;35.562;2023-12-20T02:20:45;98887.91;;;18.65;43.25
73692;BME280;61996;49.910;35.562;2023-12-20T02:23:49;98892.69;;;18.61;43.50
73692;BME280;61996;49.910;35.562;2023-12-20T02:26:52;98892.19;;;18.57;43.71
73692;BME280;61996;49.910;35.562;2023-12-20T02:29:55;98895.13;;;18.54;43.77
73692;BME280;61996;49.910;35.562;2023-12-20T02:32:58;98902.84;;;18.57;43.77
73692;BME280;61996;49.910;35.562;2023-12-20T02:36:02;98901.13;;;18.56;43.67
73692;BME280;61996;49.910;35.562;2023-12-20T02:39:06;98887.47;;;18.51;43.71
73692;BME280;61996;49.910;35.562;2023-12-20T02:42:09;98887.75;;;18.48;43.73
73692;BME280;61996;49.910;35.562;2023-12-20T02:45:13;98881.00;;;18.54;43.78
73692;BME280;61996;49.910;35.562;2023-12-20T02:48:16;98881.31;;;18.51;43.76
73692;BME280;61996;49.910;35.562;2023-12-20T02:51:19;98876.34;;;18.56;43.52
73692;BME280;61996;49.910;35.562;2023-12-20T02:54:26;98876.81;;;18.51;43.79
73692;BME280;61996;49.910;35.562;2023-12-20T02:57:29;98873.47;;;18.49;43.75
73692;BME280;61996;49.910;35.562;2023-12-20T03:00:32;98879.09;;;18.46;43.85
73692;BME280;61996;49.910;35.562;2023-12-20T03:03:35;98886.25;;;18.46;43.75
73692;BME280;61996;49.910;35.562;2023-12-20T03:06:38;98885.81;;;18.50;43.52
73692;BME280;61996;49.910;35.562;2023-12-20T03:09:43;98883.03;;;18.60;43.39
73692;BME280;61996;49.910;35.562;2023-12-20T03:13:06;98886.56;;;18.43;43.79
73692;BME280;61996;49.910;35.562;2023-12-20T03:16:10;98885.66;;;18.52;43.66
73692;BME280;61996;49.910;35.562;2023-12-20T03:19:13;98892.56;;;18.45;43.64
73692;BME280;61996;49.910;35.562;2023-12-20T03:22:16;98895.41;;;18.43;43.63
73692;BME280;61996;49.910;35.562;2023-12-20T03:25:21;98888.09;;;18.45;43.63
73692;BME280;61996;49.910;35.562;2023-12-20T03:28:24;98884.88;;;18.42;43.67
73692;BME280;61996;49.910;35.562;2023-12-20T03:31:28;98881.09;;;18.44;43.63
73692;BME280;61996;49.910;35.562;2023-12-20T03:34:31;98875.72;;;18.62;43.26
73692;BME280;61996;49.910;35.562;2023-12-20T03:37:34;98848.50;;;18.68;43.17
73692;BME280;61996;49.910;35.562;2023-12-20T03:40:38;98856.59;;;18.84;42.70
73692;BME280;61996;49.910;35.562;2023-12-20T03:43:41;98860.88;;;19.03;42.32
73692;BME280;61996;49.910;35.562;2023-12-20T03:46:44;98839.63;;;19.20;41.86
73692;BME280;61996;49.910;35.562;2023-12-20T03:49:48;98841.63;;;19.26;41.84
73692;BME280;61996;49.910;35.562;2023-12-20T03:52:54;98856.34;;;19.38;41.72
73692;BME280;61996;49.910;35.562;2023-12-20T03:56:00;98866.75;;;19.49;41.63
73692;BME280;61996;49.910;35.562;2023-12-20T03:59:03;98854.91;;;19.52;41.48
73692;BME280;61996;49.910;35.562;2023-12-20T04:02:06;98861.16;;;19.68;41.13
73692;BME280;61996;49.910;35.562;2023-12-20T04:05:09;98861.84;;;19.70;41.20
73692;BME280;61996;49.910;35.562;2023-12-20T04:08:12;98856.50;;;19.79;41.18
73692;BME280;61996;49.910;35.562;2023-12-20T04:11:17;98853.38;;;19.83;41.05
73692;BME280;61996;49.910;35.562;2023-12-20T04:14:20;98859.19;;;19.87;41.07
73692;BME280;61996;49.910;35.562;2023-12-20T04:17:23;98860.03;;;19.95;40.89
73692;BME280;61996;49.910;35.562;2023-12-20T04:20:26;98852.88;;;19.96;40.87
73692;BME280;61996;49.910;35.562;2023-12-20T04:23:29;98863.88;;;19.93;41.12
73692;BME280;61996;49.910;35.562;2023-12-20T04:26:33;98881.56;;;20.02;40.95
73692;BME280;61996;49.910;35.562;2023-12-20T04:29:36;98880.41;;;20.05;40.74
73692;BME280;61996;49.910;35.562;2023-12-20T04:32:39;98873.53;;;19.94;40.97
73692;BME280;61996;49.910;35.562;2023-12-20T04:35:42;98870.19;;;19.76;41.46
73692;BME280;61996;49.910;35.562;2023-12-20T04:38:47;98871.31;;;19.65;41.63
73692;BME280;61996;49.910;35.562;2023-12-20T04:41:51;98877.00;;;19.62;41.51
73692;BME280;61996;49.910;35.562;2023-12-20T04:44:54;98865.56;;;19.52;41.93
73692;BME280;61996;49.910;35.562;2023-12-20T04:47:57;98873.38;;;19.45;42.01
73692;BME280;61996;49.910;35.562;2023-12-20T04:51:00;98871.88;;;19.42;42.04
73692;BME280;61996;49.910;35.562;2023-12-20T04:54:03;98867.38;;;19.43;42.09
73692;BME280;61996;49.910;35.562;2023-12-20T04:57:08;98855.84;;;19.34;42.34
73692;BME280;61996;49.910;35.562;2023-12-20T05:00:11;98852.81;;;19.29;42.26
73692;BME280;61996;49.910;35.562;2023-12-20T05:03:17;98859.16;;;19.28;42.36
73692;BME280;61996;49.910;35.562;2023-12-20T05:06:20;98871.81;;;19.26;42.37
73692;BME280;61996;49.910;35.562;2023-12-20T05:09:23;98865.44;;;19.19;42.56
73692;BME280;61996;49.910;35.562;2023-12-20T05:12:27;98879.75;;;19.18;42.50
73692;BME280;61996;49.910;35.562;2023-12-20T05:15:30;98875.06;;;19.12;42.62
73692;BME280;61996;49.910;35.562;2023-12-20T05:18:34;98875.72;;;19.06;42.76
73692;BME280;61996;49.910;35.562;2023-12-20T05:21:37;98869.22;;;19.08;42.68
73692;BME280;61996;49.910;35.562;2023-12-20T05:24:40;98870.88;;;19.09;42.81
73692;BME280;61996;49.910;35.562;2023-12-20T05:27:44;98888.84;;;18.99;42.74
73692;BME280;61996;49.910;35.562;2023-12-20T05:30:48;98884.81;;;18.95;42.98
73692;BME280;61996;49.910;35.562;2023-12-20T05:33:51;98886.78;;;18.93;42.97
73692;BME280;61996;49.910;35.562;2023-12-20T05:36:54;98889.75;;;18.90;43.03
73692;BME280;61996;49.910;35.562;2023-12-20T05:39:58;98890.09;;;18.87;42.97
73692;BME280;61996;49.910;35.562;2023-12-20T05:43:02;98898.53;;;18.82;43.08
73692;BME280;61996;49.910;35.562;2023-12-20T05:46:06;98901.38;;;18.81;43.13
73692;BME280;61996;49.910;35.562;2023-12-20T05:49:09;98886.00;;;18.75;43.17
73692;BME280;61996;49.910;35.562;2023-12-20T05:52:12;98884.34;;;18.74;43.11
73692;BME280;61996;49.910;35.562;2023-12-20T05:55:16;98876.34;;;18.74;43.18
73692;BME280;61996;49.910;35.562;2023-12-20T05:58:20;98882.44;;;18.66;43.23
73692;BME280;61996;49.910;35.562;2023-12-20T06:01:23;98886.53;;;18.78;43.01
73692;BME280;61996;49.910;35.562;2023-12-20T06:12:30;98890.28;;;18.50;43.62
73692;BME280;61996;49.910;35.562;2023-12-20T06:15:36;98884.81;;;18.51;43.51
73692;BME280;61996;49.910;35.562;2023-12-20T06:18:39;98881.31;;;18.51;43.31
73692;BME280;61996;49.910;35.562;2023-12-20T06:21:42;98875.44;;;18.47;43.52
73692;BME280;61996;49.910;35.562;2023-12-20T06:24:46;98870.97;;;18.48;43.50
73692;BME280;61996;49.910;35.562;2023-12-20T06:27:49;98868.47;;;18.46;43.47
73692;BME280;61996;49.910;35.562;2023-12-20T06:30:53;98868.78;;;18.43;43.54
73692;BME280;61996;49.910;35.562;2023-12-20T06:33:56;98869.06;;;18.40;43.51
73692;BME280;61996;49.910;35.562;2023-12-20T06:37:01;98868.25;;;18.40;43.58
73692;BME280;61996;49.910;35.562;2023-12-20T06:40:05;98871.34;;;18.35;43.63
73692;BME280;61996;49.910;35.562;2023-12-20T06:43:16;98873.19;;;18.34;43.54
73692;BME280;61996;49.910;35.562;2023-12-20T06:46:41;98867.72;;;18.36;43.60
73692;BME280;61996;49.910;35.562;2023-12-20T06:49:44;98862.69;;;18.33;43.67
73692;BME280;61996;49.910;35.562;2023-12-20T06:52:47;98862.25;;;18.38;43.58
73692;BME280;61996;49.910;35.562;2023-12-20T06:55:50;98860.47;;;18.28;43.62
73692;BME280;61996;49.910;35.562;2023-12-20T06:58:53;98864.00;;;18.29;43.63
73692;BME280;61996;49.910;35.562;2023-12-20T07:01:57;98862.19;;;18.29;43.48
73692;BME280;61996;49.910;35.562;2023-12-20T07:05:00;98861.34;;;18.29;43.74
73692;BME280;61996;49.910;35.562;2023-12-20T07:08:04;98861.63;;;18.26;43.86
73692;BME280;61996;49.910;35.562;2023-12-20T07:11:07;98861.63;;;18.26;43.85
73692;BME280;61996;49.910;35.562;2023-12-20T07:14:10;98853.88;;;18.15;43.92
73692;BME280;61996;49.910;35.562;2023-12-20T07:17:15;98859.91;;;18.17;43.83
73692;BME280;61996;49.910;35.562;2023-12-20T07:20:18;98848.25;;;18.18;43.95
73692;BME280;61996;49.910;35.562;2023-12-20T07:23:21;98860.41;;;18.20;43.77
73692;BME280;61996;49.910;35.562;2023-12-20T07:26:24;98859.19;;;18.15;43.92
73692;BME280;61996;49.910;35.562;2023-12-20T07:29:27;98859.19;;;18.15;43.88
73692;BME280;61996;49.910;35.562;2023-12-20T07:32:31;98852.22;;;18.14;43.93
73692;BME280;61996;49.910;35.562;2023-12-20T07:35:34;98845.91;;;18.15;43.84
73692;BME280;61996;49.910;35.562;2023-12-20T07:38:38;98846.59;;;18.17;43.87
73692;BME280;61996;49.910;35.562;2023-12-20T07:41:41;98848.88;;;18.12;43.87
73692;BME280;61996;49.910;35.562;2023-12-20T07:44:47;98844.53;;;18.11;43.83
73692;BME280;61996;49.910;35.562;2023-12-20T07:47:51;98846.88;;;18.14;43.78
73692;BME280;61996;49.910;35.562;2023-12-20T07:50:55;98838.38;;;18.10;43.79
73692;BME280;61996;49.910;35.562;2023-12-20T07:53:58;98854.50;;;18.08;43.78
73692;BME280;61996;49.910;35.562;2023-12-20T07:57:01;98851.03;;;18.08;43.90
73692;BME280;61996;49.910;35.562;2023-12-20T08:00:04;98833.69;;;18.04;43.88
73692;BME280;61996;49.910;35.562;2023-12-20T08:03:09;98829.56;;;18.10;43.83
73692;BME280;61996;49.910;35.562;2023-12-20T08:06:12;98834.19;;;18.07;43.84
73692;BME280;61996;49.910;35.562;2023-12-20T08:09:15;98832.41;;;18.08;43.82
73692;BME280;61996;49.910;35.562;2023-12-20T08:12:18;98831.19;;;18.02;43.83
73692;BME280;61996;49.910;35.562;2023-12-20T08:15:21;98830.34;;;18.02;43.92
73692;BME280;61996;49.910;35.562;2023-12-20T08:18:26;98833.84;;;18.02;43.86
73692;BME280;61996;49.910;35.562;2023-12-20T08:21:29;98819.81;;;18.00;43.87
73692;BME280;61996;49.910;35.562;2023-12-20T08:24:36;98820.53;;;18.02;43.71
73692;BME280;61996;49.910;35.562;2023-12-20T08:27:39;98811.00;;;18.00;43.62
73692;BME280;61996;49.910;35.562;2023-12-20T08:30:43;98803.56;;;18.03;43.84
73692;BME280;61996;49.910;35.562;2023-12-20T08:33:47;98799.53;;;17.99;43.78
73692;BME280;61996;49.910;35.562;2023-12-20T08:36:51;98799.91;;;18.04;43.70
73692;BME280;61996;49.910;35.562;2023-12-20T08:39:54;98799.19;;;17.94;43.91
73692;BME280;61996;49.910;35.562;2023-12-20T08:42:57;98808.50;;;17.98;43.68
73692;BME280;61996;49.910;35.562;2023-12-20T08:46:00;98794.22;;;17.99;43.72
73692;BME280;61996;49.910;35.562;2023-12-20T08:49:04;98796.72;;;18.01;43.72
73692;BME280;61996;49.910;35.562;2023-12-20T08:52:08;98794.59;;;18.04;43.61
73692;BME280;61996;49.910;35.562;2023-12-20T08:55:11;98776.03;;;18.13;43.50
73692;BME280;61996;49.910;35.562;2023-12-20T08:58:14;98787.56;;;18.21;43.20
73692;BME280;61996;49.910;35.562;2023-12-20T09:01:18;98772.34;;;18.31;43.12
73692;BME280;61996;49.910;35.562;2023-12-20T09:04:22;98782.25;;;18.47;42.74
73692;BME280;61996;49.910;35.562;2023-12-20T09:07:26;98772.50;;;18.56;42.60
73692;BME280;61996;49.910;35.562;2023-12-20T09:10:31;98770.72;;;18.65;42.46
73692;BME280;61996;49.910;35.562;2023-12-20T09:13:35;98759.81;;;18.76;42.32
73692;BME280;61996;49.910;35.562;2023-12-20T09:16:38;98757.88;;;18.86;42.20
73692;BME280;61996;49.910;35.562;2023-12-20T09:19:42;98757.25;;;18.92;42.09
73692;BME280;61996;49.910;35.562;2023-12-20T09:22:46;98749.59;;;18.97;42.07
73692;BME280;61996;49.910;35.562;2023-12-20T09:25:49;98747.13;;;19.04;41.91
73692;BME280;61996;49.910;35.562;2023-12-20T09:28:56;98749.31;;;19.08;41.94
73692;BME280;61996;49.910;35.562;2023-12-20T09:31:59;98751.63;;;19.11;41.77
73692;BME280;61996;49.910;35.562;2023-12-20T09:35:04;98748.50;;;19.16;41.77
73692;BME280;61996;49.910;35.562;2023-12-20T09:38:08;98738.00;;;19.23;41.68
73692;BME280;61996;49.910;35.562;2023-12-20T09:41:11;98755.84;;;19.22;41.74
73692;BME280;61996;49.910;35.562;2023-12-20T09:44:15;98745.53;;;19.27;41.65
73692;BME280;61996;49.910;35.562;2023-12-20T09:47:19;98741.34;;;19.33;41.65
73692;BME280;61996;49.910;35.562;2023-12-20T09:50:24;98734.72;;;19.37;41.64
73692;BME280;61996;49.910;35.562;2023-12-20T09:53:27;98740.88;;;19.37;41.53
73692;BME280;61996;49.910;35.562;2023-12-20T09:56:31;98740.56;;;19.40;41.54
73692;BME280;61996;49.910;35.562;2023-12-20T09:59:34;98732.22;;;19.43;41.60
73692;BME280;61996;49.910;35.562;2023-12-20T10:02:38;98731.22;;;19.44;41.52
73692;BME280;61996;49.910;35.562;2023-12-20T10:05:44;98728.06;;;19.49;41.38
73692;BME280;61996;49.910;35.562;2023-12-20T10:08:47;98729.56;;;19.52;41.37
73692;BME280;61996;49.910;35.562;2023-12-20T10:11:53;98728.25;;;19.56;41.44
73692;BME280;61996;49.910;35.562;2023-12-20T10:14:57;98718.59;;;19.55;41.41
73692;BME280;61996;49.910;35.562;2023-12-20T10:18:01;98734.72;;;19.53;41.48
73692;BME280;61996;49.910;35.562;2023-12-20T10:21:06;98730.75;;;19.49;41.58
73692;BME280;61996;49.910;35.562;2023-12-20T10:24:16;98730.91;;;19.48;41.59
73692;BME280;61996;49.910;35.562;2023-12-20T10:27:19;98731.59;;;19.74;41.16
73692;BME280;61996;49.910;35.562;2023-12-20T10:30:23;98716.69;;;20.37;39.75
73692;BME280;61996;49.910;35.562;2023-12-20T10:33:26;98723.38;;;21.58;37.48
73692;BME280;61996;49.910;35.562;2023-12-20T10:36:32;98726.53;;;21.00;38.28
73692;BME280;61996;49.910;35.562;2023-12-20T10:39:35;98734.63;;;20.12;40.09
73692;BME280;61996;49.910;35.562;2023-12-20T10:42:39;98722.91;;;20.21;39.65
73692;BME280;61996;49.910;35.562;2023-12-20T10:45:42;98730.22;;;19.45;41.36
73692;BME280;61996;49.910;35.562;2023-12-20T10:48:46;98722.41;;;19.44;41.47
73692;BME280;61996;49.910;35.562;2023-12-20T10:51:51;98716.22;;;19.35;41.61
73692;BME280;61996;49.910;35.562;2023-12-20T10:54:58;98720.38;;;19.38;41.57
73692;BME280;61996;49.910;35.562;2023-12-20T10:58:04;98710.72;;;19.53;41.41
73692;BME280;61996;49.910;35.562;2023-12-20T11:01:09;98704.94;;;19.58;41.27
73692;BME280;61996;49.910;35.562;2023-12-20T11:04:17;98687.09;;;19.91;40.58
73692;BME280;61996;49.910;35.562;2023-12-20T11:07:23;98697.28;;;19.71;40.91
73692;BME280;61996;49.910;35.562;2023-12-20T11:10:36;98696.34;;;19.13;42.11
73692;BME280;61996;49.910;35.562;2023-12-20T11:13:41;98696.81;;;19.01;42.39
73692;BME280;61996;49.910;35.562;2023-12-20T11:16:46;98692.13;;;18.95;42.53
73692;BME280;61996;49.910;35.562;2023-12-20T11:23:46;98691.94;;;18.88;42.49
73692;BME280;61996;49.910;35.562;2023-12-20T11:26:49;98683.59;;;18.83;42.59
73692;BME280;61996;49.910;35.562;2023-12-20T11:29:52;98686.44;;;18.81;42.56
73692;BME280;61996;49.910;35.562;2023-12-20T11:32:55;98686.59;;;18.80;42.74
73692;BME280;61996;49.910;35.562;2023-12-20T11:35:59;98683.28;;;18.78;42.80
73692;BME280;61996;49.910;35.562;2023-12-20T11:39:03;98683.41;;;18.76;42.75
73692;BME280;61996;49.910;35.562;2023-12-20T11:42:12;98682.75;;;18.74;42.73
73692;BME280;61996;49.910;35.562;2023-12-20T11:45:17;98693.56;;;18.73;42.78
73692;BME280;61996;49.910;35.562;2023-12-20T11:48:21;98683.22;;;18.70;42.73
73692;BME280;61996;49.910;35.562;2023-12-20T11:51:24;98686.34;;;18.65;42.93
73692;BME280;61996;49.910;35.562;2023-12-20T11:54:31;98680.72;;;18.68;42.87
73692;BME280;61996;49.910;35.562;2023-12-20T11:57:34;98681.03;;;18.65;42.88
73692;BME280;61996;49.910;35.562;2023-12-20T12:00:38;98683.00;;;18.63;42.87
73692;BME280;61996;49.910;35.562;2023-12-20T12:03:41;98693.81;;;18.61;43.01
73692;BME280;61996;49.910;35.562;2023-12-20T12:06:45;98682.66;;;18.58;42.87
73692;BME280;61996;49.910;35.562;2023-12-20T12:09:50;98691.47;;;18.58;42.98
73692;BME280;61996;49.910;35.562;2023-12-20T12:12:53;98693.78;;;18.53;43.04
73692;BME280;61996;49.910;35.562;2023-12-20T12:15:56;98683.78;;;18.55;43.04
73692;BME280;61996;49.910;35.562;2023-12-20T12:18:59;98687.94;;;18.50;43.22
73692;BME280;61996;49.910;35.562;2023-12-20T12:22:05;98698.09;;;18.54;43.08
73692;BME280;61996;49.910;35.562;2023-12-20T12:25:16;98703.69;;;18.69;42.84
73692;BME280;61996;49.910;35.562;2023-12-20T12:28:19;98694.97;;;18.59;42.99
73692;BME280;61996;49.910;35.562;2023-12-20T12:31:22;98699.53;;;18.67;42.87
73692;BME280;61996;49.910;35.562;2023-12-20T12:34:29;98690.94;;;18.55;43.29
73692;BME280;61996;49.910;35.562;2023-12-20T12:37:33;98701.44;;;18.56;43.18
73692;BME280;61996;49.910;35.562;2023-12-20T12:40:41;98693.28;;;18.50;43.33
73692;BME280;61996;49.910;35.562;2023-12-20T12:43:47;98699.06;;;18.45;43.40
73692;BME280;61996;49.910;35.562;2023-12-20T12:46:50;98690.75;;;18.48;43.30
73692;BME280;61996;49.910;35.562;2023-12-20T12:49:55;98687.06;;;18.41;43.43
73692;BME280;61996;49.910;35.562;2023-12-20T12:52:58;98682.88;;;18.39;43.44
73692;BME280;61996;49.910;35.562;2023-12-20T12:56:02;98686.38;;;18.39;43.57
73692;BME280;61996;49.910;35.562;2023-12-20T12:59:06;98687.22;;;18.40;43.66
73692;BME280;61996;49.910;35.562;2023-12-20T13:02:09;98691.19;;;18.35;43.44
73692;BME280;61996;49.910;35.562;2023-12-20T13:05:12;98690.53;;;18.42;43.34
73692;BME280;61996;49.910;35.562;2023-12-20T13:08:15;98692.75;;;18.46;43.20
73692;BME280;61996;49.910;35.562;2023-12-20T13:11:20;98684.44;;;18.49;43.03
73692;BME280;61996;49.910;35.562;2023-12-20T13:14:23;98686.66;;;18.62;42.87
73692;BME280;61996;49.910;35.562;2023-12-20T13:17:26;98692.72;;;18.72;42.74
73692;BME280;61996;49.910;35.562;2023-12-20T13:20:32;98698.44;;;18.85;42.42
73692;BME280;61996;49.910;35.562;2023-12-20T13:23:35;98697.47;;;18.95;42.49
73692;BME280;61996;49.910;35.562;2023-12-20T13:26:42;98697.31;;;19.04;42.23
73692;BME280;61996;49.910;35.562;2023-12-20T13:29:45;98699.34;;;19.10;41.98
73692;BME280;61996;49.910;35.562;2023-12-20T13:32:48;98705.50;;;19.19;41.91
73692;BME280;61996;49.910;35.562;2023-12-20T13:35:52;98701.53;;;19.23;41.94
73692;BME280;61996;49.910;35.562;2023-12-20T13:38:55;98703.38;;;19.31;41.61
73692;BME280;61996;49.910;35.562;2023-12-20T13:41:59;98697.38;;;19.37;41.73
73692;BME280;61996;49.910;35.562;2023-12-20T13:45:02;98695.06;;;19.34;41.76
73692;BME280;61996;49.910;35.562;2023-12-20T13:48:06;98701.41;;;19.41;41.72
73692;BME280;61996;49.910;35.562;2023-12-20T13:51:09;98688.72;;;19.43;41.56
73692;BME280;61996;49.910;35.562;2023-12-20T13:54:12;98694.72;;;19.45;41.52
73692;BME280;61996;49.910;35.562;2023-12-20T13:57:19;98689.91;;;19.49;41.53
73692;BME280;61996;49.910;35.562;2023-12-20T14:00:42;98701.59;;;19.56;41.35
73692;BME280;61996;49.910;35.562;2023-12-20T14:03:45;98695.06;;;19.50;41.58
73692;BME280;61996;49.910;35.562;2023-12-20T14:06:48;98690.91;;;19.48;41.39
73692;BME280;61996;49.910;35.562;2023-12-20T14:13:03;98679.72;;;19.52;41.65
73692;BME280;61996;49.910;35.562;2023-12-20T14:16:13;98677.41;;;19.49;42.31
73692;BME280;61996;49.910;35.562;2023-12-20T14:19:16;98677.41;;;19.41;42.10
73692;BME280;61996;49.910;35.562;2023-12-20T14:22:19;98691.22;;;19.36;42.62
73692;BME280;61996;49.910;35.562;2023-12-20T14:25:22;98687.38;;;19.31;42.25
73692;BME280;61996;49.910;35.562;2023-12-20T14:28:29;98688.56;;;19.28;42.45
73692;BME280;61996;49.910;35.562;2023-12-20T14:31:32;98689.56;;;19.27;42.50
73692;BME280;61996;49.910;35.562;2023-12-20T14:34:35;98693.88;;;19.20;42.64
73692;BME280;61996;49.910;35.562;2023-12-20T14:37:40;98689.69;;;19.17;42.69
73692;BME280;61996;49.910;35.562;2023-12-20T14:40:43;98685.69;;;19.13;42.69
73692;BME280;61996;49.910;35.562;2023-12-20T14:43:47;98682.34;;;19.11;42.79
73692;BME280;61996;49.910;35.562;2023-12-20T14:46:50;98678.69;;;19.12;42.80
73692;BME280;61996;49.910;35.562;2023-12-20T14:49:53;98675.53;;;19.09;42.95
73692;BME280;61996;49.910;35.562;2023-12-20T14:52:56;98677.53;;;19.07;42.83
73692;BME280;61996;49.910;35.562;2023-12-20T14:56:00;98671.50;;;19.05;42.81
73692;BME280;61996;49.910;35.562;2023-12-20T14:59:05;98668.50;;;19.00;42.95
73692;BME280;61996;49.910;35.562;2023-12-20T15:02:10;98670.19;;;19.01;42.90
73692;BME280;61996;49.910;35.562;2023-12-20T15:05:13;98667.69;;;18.99;42.89
73692;BME280;61996;49.910;35.562;2023-12-20T15:08:17;98671.19;;;19.00;42.83
73692;BME280;61996;49.910;35.562;2023-12-20T15:11:20;98664.00;;;18.92;42.93
73692;BME280;61996;49.910;35.562;2023-12-20T15:14:25;98667.81;;;18.89;42.98
73692;BME280;61996;49.910;35.562;2023-12-20T15:17:30;98667.31;;;18.86;43.02
73692;BME280;61996;49.910;35.562;2023-12-20T15:20:33;98668.44;;;18.83;43.06
73692;BME280;61996;49.910;35.562;2023-12-20T15:23:38;98668.63;;;18.82;43.13
73692;BME280;61996;49.910;35.562;2023-12-20T15:26:42;98660.13;;;18.78;43.19
73692;BME280;61996;49.910;35.562;2023-12-20T15:29:47;98668.94;;;18.79;43.07
73692;BME280;61996;49.910;35.562;2023-12-20T15:32:51;98666.44;;;18.77;43.20
73692;BME280;61996;49.910;35.562;2023-12-20T15:35:54;98672.63;;;18.78;43.15
73692;BME280;61996;49.910;35.562;2023-12-20T15:38:57;98664.25;;;18.73;43.11
73692;BME280;61996;49.910;35.562;2023-12-20T15:42:00;98658.13;;;18.80;43.07
73692;BME280;61996;49.910;35.562;2023-12-20T15:45:05;98646.19;;;18.93;43.06
73692;BME280;61996;49.910;35.562;2023-12-20T15:48:09;98647.94;;;18.76;43.13
73692;BME280;61996;49.910;35.562;2023-12-20T15:51:15;98648.28;;;18.73;43.21
73692;BME280;61996;49.910;35.562;2023-12-20T15:54:18;98647.94;;;18.68;43.52
73692;BME280;61996;49.910;35.562;2023-12-20T15:57:21;98632.38;;;18.63;43.51
73692;BME280;61996;49.910;35.562;2023-12-20T16:00:27;98630.41;;;18.57;43.72
73692;BME280;61996;49.910;35.562;2023-12-20T16:03:32;98625.91;;;18.57;43.76
73692;BME280;61996;49.910;35.562;2023-12-20T16:06:44;98624.22;;;18.56;43.70
73692;BME280;61996;49.910;35.562;2023-12-20T16:09:47;98623.56;;;18.54;43.88
73692;BME280;61996;49.910;35.562;2023-12-20T16:12:50;98613.25;;;18.51;43.96
73692;BME280;61996;49.910;35.562;2023-12-20T16:15:55;98618.19;;;18.46;44.08
73692;BME280;61996;49.910;35.562;2023-12-20T16:18:58;98616.53;;;18.45;44.01